Time;durP1;ratioP1;P1;durP2;ratioP2;P2;SDS_P1;SDS_P2;PMS_P1;PMS_P2;Temp;Humidity;BMP_temperature;BMP_pressure;BME280_temperature;BME280_humidity;BME280_pressure;Samples;Min_cycle;Max_cycle;Signal;HPM_P1;HPM_P2
2022/06/22 00:01:27;;;;;;;10.77;5.38;;;;;;;20.66;54.36;100523.72;5071408;28;20044;-67
2022/06/22 00:03:57;;;;;;;10.10;5.47;;;;;;;20.45;54.77;100526.31;5079607;28;20049;-67
2022/06/22 00:06:41;;;;;;;10.50;4.53;;;;;;;20.62;54.89;100534.09;5059767;28;20063;-67
2022/06/22 00:09:21;;;;;;;13.35;5.25;;;;;;;20.54;54.71;100537.22;5081247;28;20036;-67
2022/06/22 00:11:49;;;;;;;14.00;5.15;;;;;;;20.34;55.45;100524.59;5049532;28;20052;-67
2022/06/22 00:14:19;;;;;;;11.48;4.93;;;;;;;20.53;55.15;100521.59;5081382;28;20162;-67
2022/06/22 00:16:52;;;;;;;14.65;5.00;;;;;;;20.67;54.85;100518.94;5063100;28;20056;-67
2022/06/22 00:19:32;;;;;;;10.65;5.15;;;;;;;20.64;54.55;100523.28;5076378;28;20045;-67
2022/06/22 00:22:00;;;;;;;12.95;4.72;;;;;;;20.59;54.78;100514.47;5061768;28;20045;-67
2022/06/22 00:24:27;;;;;;;13.23;5.28;;;;;;;20.45;54.98;100501.13;5056942;28;20059;-67
2022/06/22 00:27:12;;;;;;;11.98;5.43;;;;;;;19.80;57.22;100514.78;5042141;28;20064;-67
2022/06/22 00:29:40;;;;;;;12.55;5.63;;;;;;;19.85;57.48;100497.66;5071846;28;20535;-67
2022/06/22 00:32:15;;;;;;;12.18;5.85;;;;;;;20.05;56.84;100503.88;5082455;28;20051;-66
2022/06/22 00:34:43;;;;;;;15.18;5.72;;;;;;;20.00;57.13;100505.03;5081839;28;20052;-65
2022/06/22 00:37:15;;;;;;;10.20;5.55;;;;;;;20.03;56.59;100500.66;5074335;28;20056;-66
2022/06/22 00:39:48;;;;;;;15.90;5.80;;;;;;;20.05;56.70;100499.09;5080736;28;20051;-66
2022/06/22 00:42:29;;;;;;;15.32;5.53;;;;;;;20.16;56.53;100496.44;5047716;28;20048;-67
2022/06/22 00:44:56;;;;;;;15.65;5.43;;;;;;;20.07;56.90;100491.13;5084589;28;20491;-67
2022/06/22 00:47:49;;;;;;;13.25;5.63;;;;;;;19.82;57.34;100495.59;5077065;28;20051;-67
2022/06/22 00:50:23;;;;;;;12.00;5.90;;;;;;;19.98;57.01;100504.59;5073293;28;20063;-67
2022/06/22 00:52:54;;;;;;;13.02;6.60;;;;;;;19.58;58.15;100503.69;5065187;28;20059;-68
2022/06/22 00:55:38;;;;;;;14.35;6.68;;;;;;;19.52;58.46;100508.81;5078084;28;20057;-68
2022/06/22 00:58:18;;;;;;;11.75;6.00;;;;;;;19.68;58.05;100511.41;5056634;28;20044;-67
2022/06/22 01:00:55;;;;;;;14.30;5.55;;;;;;;19.83;57.49;100505.63;5078899;28;20537;-67
2022/06/22 01:03:34;;;;;;;13.30;5.57;;;;;;;20.01;57.01;100506.63;5060793;28;20045;-68
2022/06/22 01:06:07;;;;;;;13.98;6.07;;;;;;;19.88;57.25;100504.47;5063746;28;20555;-68
2022/06/22 01:08:50;;;;;;;15.38;5.88;;;;;;;20.14;56.91;100498.78;5061759;28;20047;-67
2022/06/22 01:14:26;;;;;;;12.73;5.95;;;;;;;20.00;56.68;100495.81;5069505;28;20047;-67
2022/06/22 01:16:56;;;;;;;11.55;5.93;;;;;;;19.84;57.42;100509.22;5083163;28;20119;-67
2022/06/22 01:19:23;;;;;;;13.55;6.13;;;;;;;19.35;59.01;100505.75;5055931;28;20052;-67
2022/06/22 01:22:09;;;;;;;14.10;6.20;;;;;;;19.28;59.00;100491.66;5052186;28;20094;-67
2022/06/22 01:24:52;;;;;;;13.52;6.57;;;;;;;18.97;59.77;100501.16;5057677;28;20075;-68
2022/06/22 01:27:20;;;;;;;14.30;6.32;;;;;;;19.14;59.85;100506.22;5058602;28;20057;-68
2022/06/22 01:29:53;;;;;;;16.67;6.55;;;;;;;19.24;59.78;100496.38;5073864;28;20052;-66
2022/06/22 01:32:32;;;;;;;13.40;6.82;;;;;;;19.37;59.15;100495.81;5068919;28;20053;-67
2022/06/22 01:35:04;;;;;;;16.70;6.78;;;;;;;19.37;58.73;100492.22;5084979;28;20052;-66
2022/06/22 01:37:32;;;;;;;16.02;6.60;;;;;;;19.25;58.84;100493.22;5048181;28;20387;-67
2022/06/22 01:40:03;;;;;;;16.02;6.80;;;;;;;18.93;60.62;100503.09;5061587;28;20051;-67
2022/06/22 01:42:34;;;;;;;13.13;7.03;;;;;;;18.75;60.93;100499.19;5060250;28;20500;-66
2022/06/22 01:45:38;;;;;;;17.60;7.03;;;;;;;19.05;59.81;100503.69;5073495;28;20064;-66
2022/06/22 01:48:33;;;;;;;11.55;6.57;;;;;;;19.11;60.20;100508.97;5077963;28;20053;-66
2022/06/22 01:51:18;;;;;;;14.55;6.53;;;;;;;19.20;59.39;100504.69;5068149;28;20057;-66
2022/06/22 01:53:50;;;;;;;14.65;7.65;;;;;;;19.09;59.51;100506.53;5059897;28;20439;-67
2022/06/22 01:56:23;;;;;;;13.25;7.28;;;;;;;19.13;59.88;100512.16;5059704;28;20060;-67
2022/06/22 01:59:02;;;;;;;13.20;6.32;;;;;;;19.14;59.70;100511.00;5054973;28;20411;-66
2022/06/22 02:01:51;;;;;;;14.63;6.75;;;;;;;19.04;60.23;100512.44;5088122;28;20052;-66
2022/06/22 02:04:54;;;;;;;20.60;8.13;;;;;;;18.96;60.28;100519.09;5073263;28;20053;-66
2022/06/22 02:07:48;;;;;;;13.23;7.20;;;;;;;19.15;59.98;100520.97;5049380;28;20056;-67
2022/06/22 02:10:43;;;;;;;16.00;9.10;;;;;;;19.37;59.47;100526.53;5087620;28;20044;-67
2022/06/22 02:13:28;;;;;;;11.77;7.47;;;;;;;19.33;59.00;100531.28;5050087;28;20369;-65
2022/06/22 02:15:56;;;;;;;14.85;7.45;;;;;;;19.51;58.62;100528.75;5077069;28;20059;-66
2022/06/22 02:18:28;;;;;;;14.48;7.15;;;;;;;19.57;58.71;100527.22;5055652;28;20063;-67
2022/06/22 02:20:59;;;;;;;16.90;7.10;;;;;;;19.49;58.67;100523.50;5038901;28;20654;-67
2022/06/22 02:23:34;;;;;;;12.73;6.97;;;;;;;19.53;58.72;100510.41;5084650;28;20165;-66
2022/06/22 02:26:11;;;;;;;13.57;6.53;;;;;;;19.12;59.96;100497.41;5072916;28;20063;-66
2022/06/22 02:28:39;;;;;;;18.40;7.20;;;;;;;19.17;59.65;100497.09;5070546;28;20052;-68
2022/06/22 02:31:07;;;;;;;11.77;6.85;;;;;;;19.06;60.36;100490.53;5076270;28;20440;-68
2022/06/22 02:33:36;;;;;;;16.92;7.22;;;;;;;19.44;59.55;100495.91;5055712;28;20052;-68
2022/06/22 02:36:03;;;;;;;12.50;7.47;;;;;;;19.46;58.83;100499.13;5087201;28;20464;-66
2022/06/22 02:38:31;;;;;;;12.82;6.82;;;;;;;19.12;59.66;100500.22;5073739;28;20043;-66
2022/06/22 02:46:35;;;;;;;14.02;7.80;;;;;;;19.50;59.07;100491.59;5076436;28;20051;-67
2022/06/22 02:49:11;;;;;;;11.30;6.63;;;;;;;19.66;58.16;100489.44;5040673;28;20052;-67
2022/06/22 02:51:42;;;;;;;13.18;7.35;;;;;;;19.73;57.99;100483.94;5068977;28;20055;-66
2022/06/22 02:54:24;;;;;;;13.85;7.57;;;;;;;19.34;59.20;100484.56;5054181;28;20499;-66
2022/06/22 02:56:59;;;;;;;16.67;7.55;;;;;;;19.24;59.42;100474.03;5075870;28;20055;-66
2022/06/22 02:59:27;;;;;;;13.63;7.82;;;;;;;19.08;60.13;100471.41;5073491;28;20044;-67
2022/06/22 03:01:54;;;;;;;13.13;7.55;;;;;;;19.04;60.43;100464.97;5073545;28;20602;-66
2022/06/22 03:04:22;;;;;;;14.73;8.25;;;;;;;18.76;61.34;100470.09;5046068;28;20710;-67
2022/06/22 03:06:51;;;;;;;15.85;7.85;;;;;;;18.68;61.59;100460.03;5080478;28;20060;-67
2022/06/22 03:09:19;;;;;;;13.35;7.25;;;;;;;18.74;61.53;100453.75;5073514;28;20044;-68
2022/06/22 03:11:50;;;;;;;12.85;7.65;;;;;;;18.72;61.82;100450.53;5059390;28;20056;-67
2022/06/22 03:14:27;;;;;;;12.45;7.18;;;;;;;18.91;61.49;100446.84;5066855;28;20048;-68
2022/06/22 03:17:00;;;;;;;15.38;7.40;;;;;;;19.12;60.57;100451.94;5058641;28;20064;-67
2022/06/22 03:20:03;;;;;;;13.90;8.05;;;;;;;18.89;61.39;100452.00;5043560;28;20049;-67
2022/06/22 03:22:37;;;;;;;14.82;7.50;;;;;;;19.05;60.79;100449.84;5075300;28;20048;-67
2022/06/22 03:25:17;;;;;;;14.52;7.88;;;;;;;18.71;61.84;100446.13;5059118;28;20059;-69
2022/06/22 03:27:49;;;;;;;13.68;7.45;;;;;;;18.93;61.10;100436.09;5069586;28;20554;-66
2022/06/22 03:30:23;;;;;;;14.55;7.63;;;;;;;19.20;60.21;100440.47;5060365;28;20076;-67
2022/06/22 03:33:01;;;;;;;11.40;6.65;;;;;;;19.02;60.42;100440.22;5064902;28;20056;-66
2022/06/22 03:36:01;;;;;;;13.68;7.18;;;;;;;19.17;60.25;100438.44;5072820;28;20060;-68
2022/06/22 03:38:33;;;;;;;15.30;7.63;;;;;;;19.13;60.39;100445.97;5048868;28;20052;-67
2022/06/22 03:41:05;;;;;;;15.18;7.60;;;;;;;18.98;60.58;100431.00;5078586;28;20028;-67
2022/06/22 03:43:36;;;;;;;16.70;7.43;;;;;;;18.89;60.65;100427.69;5086486;28;20040;-67
2022/06/22 03:46:06;;;;;;;15.15;7.38;;;;;;;18.95;60.46;100426.16;5080220;28;20182;-67
2022/06/22 03:48:49;;;;;;;16.38;6.82;;;;;;;18.88;60.45;100417.69;5055164;28;20076;-68
2022/06/22 03:51:22;;;;;;;14.13;7.80;;;;;;;18.87;61.01;100418.06;5066000;28;20044;-68
2022/06/22 03:54:15;;;;;;;11.18;7.07;;;;;;;18.98;60.31;100436.59;5069134;28;20054;-68
2022/06/22 03:56:48;;;;;;;17.48;6.97;;;;;;;18.66;61.19;100434.47;5075138;28;20052;-69
2022/06/22 03:59:16;;;;;;;10.63;6.63;;;;;;;18.82;60.85;100435.94;5076355;28;20052;-69
2022/06/22 04:01:43;;;;;;;12.00;7.15;;;;;;;18.84;60.76;100424.41;5060640;28;20052;-68
2022/06/22 04:04:11;;;;;;;15.15;8.05;;;;;;;18.63;61.38;100440.81;5063301;28;20490;-68
2022/06/22 04:06:44;;;;;;;13.77;7.40;;;;;;;18.33;62.29;100451.00;5060108;28;20048;-67
2022/06/22 04:09:18;;;;;;;15.45;7.93;;;;;;;18.36;62.18;100464.22;5078284;28;20048;-67
2022/06/22 04:12:04;;;;;;;13.98;7.82;;;;;;;18.67;61.29;100462.00;5091492;28;20071;-68
2022/06/22 04:14:38;;;;;;;13.27;7.82;;;;;;;18.67;61.15;100448.03;5072618;28;20057;-69
2022/06/22 04:17:11;;;;;;;14.60;7.60;;;;;;;18.38;61.63;100454.31;5065345;28;20055;-69
2022/06/22 04:19:43;;;;;;;20.20;7.88;;;;;;;18.31;62.55;100456.16;5077622;28;20045;-69
2022/06/22 04:22:17;;;;;;;14.07;7.78;;;;;;;18.70;61.55;100460.44;5057968;28;20045;-68
2022/06/22 04:25:00;;;;;;;18.23;7.93;;;;;;;18.52;61.59;100460.16;5059613;28;20056;-67
2022/06/22 04:27:35;;;;;;;18.10;8.07;;;;;;;18.32;62.34;100464.16;5031233;28;20048;-69
2022/06/22 04:30:14;;;;;;;12.85;7.68;;;;;;;18.56;61.92;100452.66;5073974;28;20574;-69
2022/06/22 04:32:49;;;;;;;21.27;7.68;;;;;;;18.74;61.06;100455.75;5057551;28;20041;-68
2022/06/22 04:35:33;;;;;;;20.40;8.05;;;;;;;18.87;60.89;100454.34;5042665;28;20052;-68
2022/06/22 04:38:26;;;;;;;15.15;7.28;;;;;;;18.80;60.64;100448.66;5076014;28;20047;-68
2022/06/22 04:41:00;;;;;;;17.08;7.63;;;;;;;18.85;61.12;100446.34;5070582;28;20045;-68
2022/06/22 04:43:28;;;;;;;15.85;7.97;;;;;;;18.79;60.79;100431.09;5064690;28;20059;-68
2022/06/22 04:45:56;;;;;;;13.48;7.95;;;;;;;18.21;62.45;100432.50;5057531;28;20091;-69
2022/06/22 04:48:30;;;;;;;15.30;8.32;;;;;;;18.23;62.67;100448.84;5047191;28;20056;-68
2022/06/22 04:51:00;;;;;;;17.92;8.27;;;;;;;18.20;62.83;100463.53;5061671;28;20052;-68
2022/06/22 04:53:29;;;;;;;14.25;7.60;;;;;;;18.48;62.31;100452.91;5050721;28;20057;-68
2022/06/22 04:56:03;;;;;;;14.98;7.43;;;;;;;18.68;61.35;100455.25;5059869;28;20053;-67
2022/06/22 04:58:42;;;;;;;12.98;8.20;;;;;;;18.27;62.35;100446.94;5070561;28;20057;-68
2022/06/22 05:01:28;;;;;;;10.77;7.20;;;;;;;18.62;61.80;100444.78;5076088;28;20048;-69
2022/06/22 05:03:59;;;;;;;17.73;8.20;;;;;;;18.62;61.44;100444.78;5073304;28;20055;-69
2022/06/22 05:07:14;;;;;;;15.55;7.80;;;;;;;18.36;61.83;100444.72;5058555;28;20053;-68
2022/06/22 05:09:49;;;;;;;13.05;7.82;;;;;;;18.37;62.53;100437.94;5040165;28;20063;-68
2022/06/22 05:12:22;;;;;;;11.93;8.90;;;;;;;18.15;63.12;100442.31;5056940;28;20060;-68
2022/06/22 05:14:55;;;;;;;21.20;8.95;;;;;;;18.09;63.39;100443.81;5057574;28;20055;-68
2022/06/22 05:17:30;;;;;;;;;;;;;;;18.21;62.47;100438.06;5067884;28;20056;-68
2022/06/22 05:20:01;;;;;;;14.60;8.65;;;;;;;18.22;62.65;100431.31;5076355;28;19920;-69
2022/06/22 05:22:29;;;;;;;16.20;8.63;;;;;;;18.04;63.39;100448.91;5078571;28;20051;-68
2022/06/22 05:25:01;;;;;;;15.65;8.73;;;;;;;18.01;63.63;100449.63;5058145;28;20079;-68
2022/06/22 05:27:33;;;;;;;15.00;8.27;;;;;;;18.15;63.39;100447.91;5064272;28;20048;-69
2022/06/22 05:30:05;;;;;;;17.35;8.73;;;;;;;18.26;62.62;100445.31;5058319;28;20082;-68
2022/06/22 05:32:42;;;;;;;21.35;9.55;;;;;;;18.06;62.87;100444.56;5071764;28;20383;-69
2022/06/22 05:35:12;;;;;;;17.13;9.15;;;;;;;17.91;63.58;100432.34;5060774;28;20643;-69
2022/06/22 05:37:44;;;;;;;19.50;9.05;;;;;;;18.27;62.97;100441.38;5074541;28;20408;-69
2022/06/22 05:40:12;;;;;;;17.88;9.07;;;;;;;18.12;62.75;100440.28;5063958;28;20092;-69
2022/06/22 05:42:40;;;;;;;17.00;9.00;;;;;;;18.24;62.68;100440.09;5087366;28;20045;-68
2022/06/22 05:45:21;;;;;;;18.60;8.90;;;;;;;18.17;63.01;100437.19;5073853;28;20056;-68
2022/06/22 05:47:49;;;;;;;16.75;8.52;;;;;;;18.20;63.07;100442.03;5086284;28;20487;-68
2022/06/22 05:50:26;;;;;;;18.50;9.90;;;;;;;17.95;63.64;100452.72;5055392;28;20049;-68
2022/06/22 05:53:09;;;;;;;17.85;9.35;;;;;;;18.02;63.22;100456.81;5050965;28;20053;-69
2022/06/22 05:55:59;;;;;;;20.92;9.70;;;;;;;17.93;63.37;100451.47;5068900;28;20055;-70
2022/06/22 05:58:35;;;;;;;21.85;9.65;;;;;;;18.28;62.94;100443.78;5072327;28;20048;-71
2022/06/22 06:01:11;;;;;;;15.38;10.07;;;;;;;17.74;64.16;100446.75;5052475;28;20047;-68
2022/06/22 06:03:49;;;;;;;16.35;9.20;;;;;;;17.81;64.24;100449.66;5055726;28;20489;-70
2022/06/22 06:06:22;;;;;;;21.02;9.73;;;;;;;17.93;63.73;100443.94;5087387;28;20052;-69
2022/06/22 06:08:55;;;;;;;22.38;9.85;;;;;;;18.07;63.17;100428.63;5059202;28;20051;-69
2022/06/22 06:11:27;;;;;;;23.58;9.35;;;;;;;18.40;62.66;100429.66;5040890;28;20052;-67
2022/06/22 06:13:59;;;;;;;14.80;8.88;;;;;;;18.04;63.59;100432.16;5079968;28;20048;-69
2022/06/22 06:16:31;;;;;;;19.45;10.23;;;;;;;17.58;64.73;100451.59;5074434;28;20051;-68
2022/06/22 06:19:00;;;;;;;17.90;9.40;;;;;;;17.75;64.72;100448.34;5055538;28;20048;-68
2022/06/22 06:21:36;;;;;;;17.88;9.32;;;;;;;18.08;64.22;100449.78;5073697;28;20399;-68
2022/06/22 06:24:25;;;;;;;17.38;8.90;;;;;;;18.03;63.35;100450.09;5071509;28;20048;-69
2022/06/22 06:29:56;;;;;;;19.92;10.02;;;;;;;18.29;63.43;100448.16;5049234;28;20055;-70
2022/06/22 06:32:34;;;;;;;16.30;9.23;;;;;;;18.27;63.05;100444.16;5060408;28;20586;-71
2022/06/22 06:35:18;;;;;;;15.65;9.30;;;;;;;18.24;63.77;100444.88;5054007;28;20048;-70
2022/06/22 06:38:13;;;;;;;19.42;9.35;;;;;;;17.83;64.52;100441.75;5051085;28;20055;-70
2022/06/22 06:41:04;;;;;;;16.08;9.85;;;;;;;17.73;65.01;100449.91;5071472;28;20056;-71
2022/06/22 06:43:36;;;;;;;16.48;10.07;;;;;;;17.72;64.75;100443.50;5057990;28;20053;-70
2022/06/22 06:46:09;;;;;;;20.02;10.52;;;;;;;18.11;63.84;100455.41;5056525;28;20045;-68
2022/06/22 06:48:37;;;;;;;20.50;10.18;;;;;;;18.23;62.99;100448.84;5088469;28;20048;-68
2022/06/22 06:51:06;;;;;;;21.05;9.80;;;;;;;18.03;64.16;100447.28;5022261;28;20059;-69
2022/06/22 06:53:52;;;;;;;24.02;10.88;;;;;;;17.81;65.02;100448.84;5057772;28;20060;-69
2022/06/22 06:56:25;;;;;;;20.95;10.05;;;;;;;17.89;65.31;100448.63;5052568;28;20053;-66
2022/06/22 06:58:55;;;;;;;18.75;9.70;;;;;;;18.12;65.11;100445.88;5066979;28;20053;-67
2022/06/22 07:01:24;;;;;;;;;;;;;;;18.53;63.97;100445.03;5072315;28;20404;-68
2022/06/22 07:03:58;;;;;;;26.38;10.70;;;;;;;18.76;62.07;100453.38;5048502;28;19925;-67
2022/06/22 07:06:26;;;;;;;21.65;10.70;;;;;;;18.56;62.49;100449.88;5063182;28;20059;-65
2022/06/22 07:09:02;;;;;;;23.08;9.68;;;;;;;18.55;62.45;100455.84;5054779;28;20427;-67
2022/06/22 07:11:33;;;;;;;19.33;9.25;;;;;;;18.90;61.82;100442.41;5058411;28;20487;-65
2022/06/22 07:14:16;;;;;;;18.58;9.95;;;;;;;18.20;63.33;100463.53;5052046;28;20040;-66
2022/06/22 07:16:44;;;;;;;20.23;10.88;;;;;;;18.36;63.34;100456.66;5071325;28;20063;-67
2022/06/22 07:19:16;;;;;;;19.27;9.82;;;;;;;18.50;62.99;100453.31;5064865;28;20540;-68
2022/06/22 07:21:45;;;;;;;19.90;11.07;;;;;;;18.59;62.20;100442.72;5078091;28;20049;-66
2022/06/22 07:24:23;;;;;;;24.10;10.80;;;;;;;18.65;62.10;100441.25;5077946;28;20044;-66
2022/06/22 07:27:27;;;;;;;17.38;10.05;;;;;;;18.71;61.78;100439.72;5087899;28;20048;-66
2022/06/22 07:30:34;;;;;;;26.00;9.93;;;;;;;18.99;61.51;100437.38;5040538;28;20063;-67
2022/06/22 07:33:33;;;;;;;25.40;11.98;;;;;;;18.87;61.50;100443.19;5050948;28;20055;-67
2022/06/22 07:36:10;;;;;;;25.15;12.98;;;;;;;18.36;62.69;100455.88;5068066;28;20055;-66
2022/06/22 07:38:45;;;;;;;24.52;11.75;;;;;;;17.95;64.50;100449.94;5054234;28;20048;-66
2022/06/22 07:41:18;;;;;;;18.55;10.75;;;;;;;18.25;63.37;100455.69;5050925;28;20443;-64
2022/06/22 07:43:58;;;;;;;19.63;9.65;;;;;;;18.56;62.85;100460.22;5060828;28;20049;-65
2022/06/22 07:46:32;;;;;;;23.45;9.68;;;;;;;18.48;63.15;100475.22;5087534;28;20508;-66
2022/06/22 07:49:29;;;;;;;25.58;9.80;;;;;;;18.52;62.82;100471.31;5066148;28;20051;-64
2022/06/22 07:52:05;;;;;;;17.23;9.48;;;;;;;18.82;62.28;100466.66;5080592;28;20407;-67
2022/06/22 07:54:40;;;;;;;23.00;10.35;;;;;;;18.61;61.98;100457.94;5083599;28;20068;-67
2022/06/22 07:57:14;;;;;;;22.60;10.57;;;;;;;18.49;62.63;100465.69;5078314;28;20048;-65
2022/06/22 07:59:48;;;;;;;23.33;10.77;;;;;;;18.12;63.64;100472.94;5045752;28;20051;-67
2022/06/22 08:02:21;;;;;;;24.17;10.75;;;;;;;18.22;63.66;100475.91;5052720;28;20052;-67
2022/06/22 08:04:59;;;;;;;20.02;9.80;;;;;;;18.28;63.49;100476.41;5069809;28;20052;-66
2022/06/22 08:07:50;;;;;;;20.95;9.77;;;;;;;18.79;62.47;100464.59;5065743;28;20048;-68
2022/06/22 08:10:23;;;;;;;26.63;10.82;;;;;;;18.92;61.37;100470.75;5044009;28;20071;-70
2022/06/22 08:13:06;;;;;;;20.27;9.93;;;;;;;18.80;61.73;100470.97;5061739;28;20052;-68
2022/06/22 08:15:39;;;;;;;22.02;10.43;;;;;;;18.65;62.27;100481.13;5072413;28;20419;-71
2022/06/22 08:18:08;;;;;;;25.98;11.60;;;;;;;18.73;61.75;100482.03;5072725;28;20053;-68
2022/06/22 08:20:38;;;;;;;20.60;10.00;;;;;;;19.09;60.92;100478.59;5068744;28;20049;-68
2022/06/22 08:23:07;;;;;;;18.27;9.65;;;;;;;19.49;60.10;100475.22;5037388;28;20049;-69
2022/06/22 08:25:56;;;;;;;21.40;9.88;;;;;;;19.79;58.91;100482.41;5057563;28;20060;-68
2022/06/22 08:28:24;;;;;;;20.10;11.00;;;;;;;19.78;58.39;100480.81;5061572;28;20052;-68
2022/06/22 08:30:53;;;;;;;21.50;9.98;;;;;;;19.71;58.66;100477.91;5033372;28;20045;-68
2022/06/22 08:33:58;;;;;;;24.87;10.23;;;;;;;19.72;58.59;100478.69;5066688;28;20431;-66
2022/06/22 08:36:38;;;;;;;18.15;9.93;;;;;;;19.71;59.00;100491.88;5068965;28;20052;-67
2022/06/22 08:39:23;;;;;;;20.38;10.02;;;;;;;19.73;58.80;100480.31;5038100;28;20048;-68
2022/06/22 08:42:32;;;;;;;21.38;9.95;;;;;;;20.00;57.83;100488.25;5052300;28;20040;-67
2022/06/22 08:45:15;;;;;;;19.45;10.80;;;;;;;19.74;58.65;100481.94;4993400;28;20053;-68
2022/06/22 08:47:59;;;;;;;25.35;11.20;;;;;;;19.83;58.48;100480.47;5071899;28;20447;-67
2022/06/22 08:50:48;;;;;;;22.35;10.32;;;;;;;19.92;57.74;100482.94;5078217;28;20437;-70
2022/06/22 08:53:34;;;;;;;16.73;10.27;;;;;;;20.07;57.37;100468.75;5072483;28;20049;-68
2022/06/22 08:56:24;;;;;;;19.85;10.75;;;;;;;20.27;57.19;100466.59;5069861;28;20056;-69
2022/06/22 08:59:09;;;;;;;19.17;10.20;;;;;;;20.65;56.61;100468.13;5060151;28;20400;-66
2022/06/22 09:01:51;;;;;;;18.50;9.68;;;;;;;20.47;56.21;100465.19;5051162;28;20082;-68
2022/06/22 09:04:41;;;;;;;19.75;9.52;;;;;;;20.70;55.54;100467.78;5071315;28;20070;-66
2022/06/22 09:07:36;;;;;;;18.92;10.38;;;;;;;20.56;55.98;100476.03;5076126;28;20048;-68
2022/06/22 09:10:25;;;;;;;22.23;10.65;;;;;;;20.50;56.18;100472.00;5090331;28;20048;-68
2022/06/22 09:13:18;;;;;;;16.83;10.65;;;;;;;20.51;56.13;100476.41;5051609;28;20039;-65
2022/06/22 09:15:50;;;;;;;25.63;10.40;;;;;;;20.39;56.33;100482.28;5071668;28;20047;-67
2022/06/22 09:18:44;;;;;;;36.83;10.25;;;;;;;20.29;57.15;100469.00;5071778;28;20052;-66
2022/06/22 09:21:37;;;;;;;22.42;9.07;;;;;;;20.79;56.48;100476.66;5075974;28;20047;-67
2022/06/22 09:24:34;;;;;;;24.02;10.63;;;;;;;20.93;55.20;100477.56;5083200;28;20051;-67
2022/06/22 09:27:18;;;;;;;24.17;9.82;;;;;;;21.03;54.74;100476.06;5021718;28;20059;-68
2022/06/22 09:30:10;;;;;;;21.58;10.13;;;;;;;20.86;55.10;100465.50;5055860;28;20058;-69
2022/06/22 09:33:00;;;;;;;23.58;10.45;;;;;;;20.83;55.52;100483.91;5078329;28;20047;-68
2022/06/22 09:35:40;;;;;;;17.90;9.50;;;;;;;21.18;54.74;100474.97;5061660;28;20419;-70
2022/06/22 09:38:15;;;;;;;22.08;10.43;;;;;;;20.93;55.28;100474.78;5084260;28;20040;-71
2022/06/22 09:40:54;;;;;;;22.35;8.98;;;;;;;20.97;55.10;100483.97;5059811;28;20063;-69
2022/06/22 09:43:26;;;;;;;17.63;8.25;;;;;;;21.23;54.85;100474.59;5051486;28;20511;-68
2022/06/22 09:46:15;;;;;;;17.20;8.45;;;;;;;21.64;54.53;100473.22;5070480;28;20052;-69
2022/06/22 09:48:49;;;;;;;21.70;8.57;;;;;;;22.05;53.31;100471.00;5044278;28;20523;-69
2022/06/22 09:51:29;;;;;;;19.17;8.55;;;;;;;22.02;52.83;100472.59;5087652;28;20053;-69
2022/06/22 09:54:02;;;;;;;20.55;8.00;;;;;;;22.13;52.63;100472.63;5048168;28;20051;-70
2022/06/22 09:57:20;;;;;;;24.92;9.57;;;;;;;22.12;52.22;100471.81;5084982;28;20052;-70
2022/06/22 10:00:14;;;;;;;19.98;8.13;;;;;;;22.35;52.04;100465.88;5029526;28;20050;-69
2022/06/22 10:03:01;;;;;;;18.83;9.77;;;;;;;22.73;51.40;100465.13;5055720;28;20040;-71
2022/06/22 10:05:32;;;;;;;15.27;7.35;;;;;;;23.12;50.74;100459.44;5074122;28;20060;-73
2022/06/22 10:08:15;;;;;;;18.05;8.60;;;;;;;23.02;50.52;100477.94;5059382;28;20052;-70
2022/06/22 10:11:04;;;;;;;15.20;7.90;;;;;;;22.58;51.47;100473.94;5075642;28;20048;-70
2022/06/22 10:14:10;;;;;;;16.15;8.70;;;;;;;22.35;52.55;100469.47;5054896;28;20055;-69
2022/06/22 10:16:40;;;;;;;14.48;7.65;;;;;;;22.22;53.27;100468.25;5057201;28;20055;-68
2022/06/22 10:19:16;;;;;;;18.58;8.40;;;;;;;22.78;52.07;100464.72;5048827;28;20060;-70
2022/06/22 10:22:07;;;;;;;16.55;8.15;;;;;;;23.06;51.64;100459.06;5087408;28;20048;-69
2022/06/22 10:24:40;;;;;;;14.73;7.55;;;;;;;23.10;51.35;100453.44;5057303;28;20063;-69
2022/06/22 10:27:41;;;;;;;13.60;8.27;;;;;;;23.09;51.75;100461.06;5069474;28;20591;-68
2022/06/22 10:30:18;;;;;;;19.13;11.82;;;;;;;23.28;52.01;100448.59;5055182;28;20044;-69
2022/06/22 10:33:31;;;;;;;23.08;10.18;;;;;;;23.59;50.74;100450.50;5067514;28;20048;-71
2022/06/22 10:36:07;;;;;;;16.48;8.55;;;;;;;23.71;51.00;100446.47;5059350;28;20581;-69
2022/06/22 10:39:05;;;;;;;15.75;8.07;;;;;;;23.47;51.27;100450.19;5077169;28;20059;-68
2022/06/22 10:45:09;;;;;;;17.80;8.60;;;;;;;23.67;51.48;100434.41;5054051;28;20059;-67
2022/06/22 10:47:44;;;;;;;15.32;7.75;;;;;;;23.70;52.15;100428.78;5057505;28;20051;-68
2022/06/22 10:50:37;;;;;;;19.65;7.65;;;;;;;23.67;52.22;100426.78;5078918;28;20059;-65
2022/06/22 10:53:14;;;;;;;16.73;7.55;;;;;;;23.73;52.07;100432.78;5049489;28;20485;-68
2022/06/22 10:56:08;;;;;;;17.88;7.82;;;;;;;23.52;52.95;100427.25;5051809;28;20059;-68
2022/06/22 10:59:07;;;;;;;16.50;7.30;;;;;;;23.38;53.74;100416.84;5057447;28;20052;-70
2022/06/22 11:01:56;;;;;;;14.25;8.07;;;;;;;23.70;53.03;100416.72;5063458;28;20053;-68
2022/06/22 11:04:40;;;;;;;10.98;6.57;;;;;;;24.24;52.70;100405.56;5055017;28;20055;-70
2022/06/22 11:07:35;;;;;;;13.65;6.88;;;;;;;24.36;52.12;100407.09;5062135;28;20055;-68
2022/06/22 11:10:21;;;;;;;14.13;7.65;;;;;;;23.88;53.22;100412.63;5063309;28;20057;-68
2022/06/22 11:13:07;;;;;;;13.82;7.28;;;;;;;24.05;53.77;100417.38;5036032;28;20045;-68
2022/06/22 11:16:12;;;;;;;14.20;6.40;;;;;;;24.57;52.87;100414.56;5051082;28;20522;-67
2022/06/22 11:18:55;;;;;;;12.82;8.20;;;;;;;24.76;53.06;100414.81;5054537;28;20045;-67
2022/06/22 11:21:43;;;;;;;14.52;6.13;;;;;;;24.69;54.25;100416.88;5051871;28;20049;-67
2022/06/22 11:24:13;;;;;;;10.52;7.10;;;;;;;24.52;55.08;100413.00;5055396;28;20041;-67
2022/06/22 11:33:20;;;;;;;12.52;7.55;;;;;;;24.69;55.96;100420.53;5052393;28;20439;-68
2022/06/22 11:36:06;;;;;;;15.07;9.73;;;;;;;24.83;55.48;100430.84;5056515;28;20488;-68
2022/06/22 11:39:05;;;;;;;9.80;4.60;;;;;;;24.89;55.11;100429.19;5048788;28;20559;-69
2022/06/22 11:41:55;;;;;;;11.07;4.78;;;;;;;25.25;53.67;100422.78;5037935;28;20064;-68
2022/06/22 11:44:37;;;;;;;8.38;4.50;;;;;;;24.85;54.92;100434.88;5063123;28;20650;-68
2022/06/22 11:47:42;;;;;;;9.90;4.53;;;;;;;24.57;55.20;100429.44;5050854;28;20488;-68
2022/06/22 11:50:23;;;;;;;13.07;4.50;;;;;;;24.61;55.16;100430.22;5050438;28;20061;-67
2022/06/22 11:52:59;;;;;;;10.93;4.55;;;;;;;24.29;55.98;100430.47;5047338;28;20512;-69
2022/06/22 11:55:47;;;;;;;6.97;3.90;;;;;;;24.29;55.81;100426.84;5046000;28;20056;-67
2022/06/22 11:58:29;;;;;;;11.45;4.40;;;;;;;24.58;54.80;100421.81;5050545;28;20060;-68
2022/06/22 12:01:19;;;;;;;26.08;7.28;;;;;;;24.52;55.05;100425.06;5049787;28;20410;-74
2022/06/22 12:04:16;;;;;;;9.65;4.93;;;;;;;24.78;54.21;100432.13;5043700;28;20037;-68
2022/06/22 12:06:50;;;;;;;18.10;5.38;;;;;;;24.73;54.91;100435.38;5050394;28;20064;-67
2022/06/22 12:09:33;;;;;;;12.85;5.03;;;;;;;24.96;54.08;100440.41;5049542;28;20412;-67
2022/06/22 12:12:22;;;;;;;13.77;5.32;;;;;;;24.88;54.57;100439.66;5053610;28;20622;-68
2022/06/22 12:15:06;;;;;;;13.43;5.18;;;;;;;24.93;54.69;100438.44;5051980;28;20076;-69
2022/06/22 12:17:54;;;;;;;18.50;5.93;;;;;;;24.76;55.26;100447.84;5061405;28;20060;-68
2022/06/22 12:20:48;;;;;;;22.80;10.80;;;;;;;24.74;55.78;100447.47;5051942;28;20057;-69
2022/06/22 12:23:35;;;;;;;17.27;8.27;;;;;;;25.13;54.36;100445.06;5037144;28;20511;-69
2022/06/22 12:26:35;;;;;;;22.77;11.25;;;;;;;25.10;53.92;100449.53;5060727;28;20120;-68
2022/06/22 12:29:13;;;;;;;15.00;5.50;;;;;;;24.80;55.25;100460.69;5008486;28;20065;-69
2022/06/22 12:31:51;;;;;;;9.13;5.05;;;;;;;24.73;54.95;100463.56;5083721;28;20048;-67
2022/06/22 12:34:42;;;;;;;12.02;5.50;;;;;;;24.47;56.49;100466.94;5049123;28;20052;-70